createdAt,value
2023-02-13T00:00:39.373Z,99.99
2023-02-13T00:01:39.386Z,99.99
2023-02-13T00:02:39.382Z,99.99
2023-02-13T00:03:39.419Z,99.99
2023-02-13T00:04:39.368Z,99.99
2023-02-13T00:05:39.330Z,99.99
2023-02-13T00:06:39.321Z,99.99
2023-02-13T00:07:39.316Z,99.99
2023-02-13T00:08:39.303Z,99.99
2023-02-13T00:09:39.298Z,99.99
2023-02-13T00:10:39.290Z,99.99
2023-02-13T00:11:39.297Z,99.99
2023-02-13T00:12:39.263Z,99.99
2023-02-13T00:13:39.255Z,99.99
2023-02-13T00:14:39.257Z,99.99
2023-02-13T00:15:39.270Z,99.99
2023-02-13T00:16:39.233Z,99.99
2023-02-13T00:17:39.225Z,99.99
2023-02-13T00:18:39.210Z,99.99
2023-02-13T00:19:39.206Z,99.99
2023-02-13T00:20:39.194Z,99.99
2023-02-13T00:21:39.179Z,99.99
2023-02-13T00:22:39.176Z,99.99
2023-02-13T00:23:39.179Z,99.99
2023-02-13T00:24:39.170Z,99.99
2023-02-13T00:25:39.149Z,99.99
2023-02-13T00:26:39.141Z,99.99
2023-02-13T00:27:39.131Z,99.99
2023-02-13T00:28:39.148Z,99.99
2023-02-13T00:29:39.140Z,99.99
2023-02-13T00:30:39.101Z,99.99
2023-02-13T00:31:39.239Z,99.99
2023-02-13T00:32:39.086Z,99.99
2023-02-13T00:33:39.083Z,99.99
2023-02-13T00:34:39.081Z,99.99
2023-02-13T00:35:39.058Z,99.99
2023-02-13T00:36:39.052Z,99.99
2023-02-13T00:37:39.044Z,99.99
2023-02-13T00:38:39.032Z,99.99
2023-02-13T00:39:39.031Z,99.99
2023-02-13T00:40:39.022Z,99.99
2023-02-13T00:41:39.002Z,99.99
2023-02-13T00:42:39.014Z,99.99
2023-02-13T00:43:38.993Z,99.99
2023-02-13T00:44:38.997Z,99.99
2023-02-13T00:45:38.971Z,99.99
2023-02-13T00:46:39.062Z,99.99
2023-02-13T00:47:38.957Z,99.99
2023-02-13T00:48:38.953Z,99.99
2023-02-13T00:49:38.981Z,99.99
2023-02-13T00:50:38.935Z,99.99
2023-02-13T00:51:38.919Z,99.99
2023-02-13T00:52:38.911Z,99.99
2023-02-13T00:53:38.902Z,99.99
2023-02-13T00:54:38.898Z,99.99
2023-02-13T00:55:39.052Z,99.99
2023-02-13T00:56:38.876Z,99.99
2023-02-13T00:57:38.882Z,99.99
2023-02-13T00:58:38.961Z,99.99
2023-02-13T00:59:38.854Z,99.99
2023-02-13T01:00:38.856Z,99.99
2023-02-13T01:01:38.881Z,99.99
2023-02-13T01:02:39.822Z,99.99
2023-02-13T01:03:39.006Z,99.99
2023-02-13T01:04:38.812Z,99.99
2023-02-13T01:05:38.823Z,99.99
2023-02-13T01:06:38.815Z,99.99
2023-02-13T01:07:38.788Z,99.99
2023-02-13T01:08:38.777Z,99.99
2023-02-13T01:09:38.769Z,99.99
2023-02-13T01:10:38.772Z,99.99
2023-02-13T01:11:38.748Z,99.99
2023-02-13T01:12:38.776Z,99.99
2023-02-13T01:13:38.735Z,99.99
2023-02-13T01:14:38.727Z,99.99
2023-02-13T01:15:38.748Z,99.99
2023-02-13T01:16:38.708Z,99.99
2023-02-13T01:17:38.698Z,99.99
2023-02-13T01:18:38.689Z,99.99
2023-02-13T01:19:38.683Z,99.99
2023-02-13T01:20:38.680Z,99.99
2023-02-13T01:21:38.665Z,99.99
2023-02-13T01:22:38.655Z,99.99
2023-02-13T01:23:38.646Z,99.99
2023-02-13T01:24:38.637Z,99.99
2023-02-13T01:25:38.639Z,99.99
2023-02-13T01:26:38.626Z,99.99
2023-02-13T01:27:38.617Z,99.99
2023-02-13T01:28:38.659Z,99.99
2023-02-13T01:29:38.601Z,99.99
2023-02-13T01:30:38.614Z,99.99
2023-02-13T01:31:38.668Z,99.99
2023-02-13T01:32:38.563Z,99.99
2023-02-13T01:33:38.559Z,99.99
2023-02-13T01:34:38.548Z,99.99
2023-02-13T01:35:38.550Z,99.99
2023-02-13T01:36:38.532Z,99.99
2023-02-13T01:37:38.531Z,99.99
2023-02-13T01:38:38.519Z,99.99
2023-02-13T01:39:38.505Z,99.99
2023-02-13T01:40:38.512Z,99.99
2023-02-13T01:41:38.496Z,99.99
2023-02-13T01:42:38.499Z,99.99
2023-02-13T01:43:38.468Z,99.99
2023-02-13T01:44:38.463Z,99.99
2023-02-13T01:45:38.477Z,99.99
2023-02-13T01:46:38.542Z,99.99
2023-02-13T01:47:38.431Z,99.99
2023-02-13T01:48:38.418Z,99.99
2023-02-13T01:49:38.410Z,99.99
2023-02-13T01:50:38.420Z,99.99
2023-02-13T01:51:38.396Z,99.99
2023-02-13T01:52:38.386Z,99.99
2023-02-13T01:53:38.380Z,99.99
2023-02-13T01:54:38.367Z,99.99
2023-02-13T01:55:38.379Z,99.99
2023-02-13T01:56:38.354Z,99.99
2023-02-13T01:57:38.352Z,99.99
2023-02-13T01:58:38.334Z,99.99
2023-02-13T01:59:38.327Z,99.99
2023-02-13T02:00:38.329Z,99.99
2023-02-13T02:01:38.390Z,99.99
2023-02-13T02:02:38.326Z,99.99
2023-02-13T02:03:38.293Z,99.99
2023-02-13T02:04:38.283Z,99.99
2023-02-13T02:05:38.289Z,99.99
2023-02-13T02:06:38.269Z,99.99
2023-02-13T02:07:38.263Z,99.99
2023-02-13T02:08:38.248Z,99.99
2023-02-13T02:09:38.240Z,99.99
2023-02-13T02:10:38.245Z,99.99
2023-02-13T02:11:38.224Z,99.99
2023-02-13T02:12:38.217Z,99.99
2023-02-13T02:13:38.209Z,99.99
2023-02-13T02:14:38.209Z,99.99
2023-02-13T02:15:38.209Z,99.99
2023-02-13T02:16:38.179Z,99.99
2023-02-13T02:17:38.177Z,99.99
2023-02-13T02:18:38.166Z,99.99
2023-02-13T02:19:38.160Z,99.99
2023-02-13T02:20:38.168Z,99.99
2023-02-13T02:21:38.138Z,99.99
2023-02-13T02:22:38.131Z,99.99
2023-02-13T02:23:38.126Z,99.99
2023-02-13T02:24:38.113Z,99.99
2023-02-13T02:25:38.115Z,99.99
2023-02-13T02:26:38.103Z,99.99
2023-02-13T02:27:38.089Z,99.99
2023-02-13T02:28:38.204Z,99.99
2023-02-13T02:29:38.069Z,99.99
2023-02-13T02:30:38.127Z,99.99
2023-02-13T02:31:38.111Z,99.99
2023-02-13T02:32:38.045Z,99.99
2023-02-13T02:33:38.037Z,99.99
2023-02-13T02:34:38.032Z,99.99
2023-02-13T02:35:38.028Z,99.99
2023-02-13T02:36:38.019Z,99.99
2023-02-13T02:37:38.004Z,99.99
2023-02-13T02:38:37.991Z,99.99
2023-02-13T02:39:37.994Z,99.99
2023-02-13T02:40:37.988Z,99.99
2023-02-13T02:41:37.970Z,99.99
2023-02-13T02:42:37.960Z,99.99
2023-02-13T02:43:37.949Z,99.99
2023-02-13T02:44:37.940Z,99.99
2023-02-13T02:45:37.940Z,99.99
2023-02-13T02:46:37.959Z,99.99
2023-02-13T02:47:37.910Z,99.99
2023-02-13T02:48:37.903Z,99.99
2023-02-13T02:49:37.892Z,99.99
2023-02-13T02:50:37.893Z,99.99
2023-02-13T02:51:37.873Z,99.99
2023-02-13T02:52:37.864Z,99.99
2023-02-13T02:53:37.888Z,99.99
2023-02-13T02:54:37.850Z,99.99
2023-02-13T02:55:37.849Z,99.99
2023-02-13T02:56:37.829Z,99.99
2023-02-13T02:57:37.821Z,99.99
2023-02-13T02:58:37.819Z,99.99
2023-02-13T02:59:37.803Z,99.99
2023-02-13T03:00:37.846Z,99.99
2023-02-13T03:01:37.785Z,99.99
2023-02-13T03:02:37.784Z,99.99
2023-02-13T03:03:37.773Z,99.99
2023-02-13T03:04:37.762Z,99.99
2023-02-13T03:05:37.765Z,99.99
2023-02-13T03:06:37.738Z,99.99
2023-02-13T03:07:37.732Z,99.99
2023-02-13T03:08:37.731Z,99.99
2023-02-13T03:09:37.716Z,99.99
2023-02-13T03:10:37.716Z,99.99
2023-02-13T03:11:37.703Z,99.99
2023-02-13T03:12:37.685Z,99.99
2023-02-13T03:13:37.680Z,99.99
2023-02-13T03:14:37.679Z,99.99
2023-02-13T03:15:37.676Z,99.99
2023-02-13T03:16:37.716Z,99.99
2023-02-13T03:17:37.658Z,99.99
2023-02-13T03:18:37.645Z,99.99
2023-02-13T03:19:37.633Z,99.99
2023-02-13T03:20:37.645Z,99.99
2023-02-13T03:21:37.613Z,99.99
2023-02-13T03:22:37.602Z,99.99
2023-02-13T03:23:37.589Z,99.99
2023-02-13T03:24:37.588Z,99.99
2023-02-13T03:25:37.588Z,99.99
2023-02-13T03:26:37.568Z,99.99
2023-02-13T03:27:37.561Z,99.99
2023-02-13T03:28:37.603Z,99.99
2023-02-13T03:29:37.541Z,99.99
2023-02-13T03:30:37.626Z,99.99
2023-02-13T03:31:37.594Z,99.99
2023-02-13T03:32:37.518Z,99.99
2023-02-13T03:33:37.506Z,99.99
2023-02-13T03:34:37.499Z,99.99
2023-02-13T03:35:37.498Z,99.99
2023-02-13T03:36:37.476Z,99.99
2023-02-13T03:37:37.472Z,99.99
2023-02-13T03:38:37.471Z,99.99
2023-02-13T03:39:37.466Z,99.99
2023-02-13T03:40:37.459Z,99.99
2023-02-13T03:41:37.435Z,99.99
2023-02-13T03:42:37.437Z,99.99
2023-02-13T03:43:37.423Z,99.99
2023-02-13T03:44:37.421Z,99.99
2023-02-13T03:45:37.448Z,99.99
2023-02-13T03:46:38.393Z,99.99
2023-02-13T03:47:37.392Z,99.99
2023-02-13T03:48:37.383Z,99.99
2023-02-13T03:49:37.364Z,99.99
2023-02-13T03:50:37.367Z,99.99
2023-02-13T03:51:37.361Z,99.99
2023-02-13T03:52:37.338Z,99.99
2023-02-13T03:53:37.329Z,99.99
2023-02-13T03:54:37.324Z,99.99
2023-02-13T03:55:37.331Z,99.99
2023-02-13T03:56:37.308Z,99.99
2023-02-13T03:57:37.302Z,99.99
2023-02-13T03:58:37.289Z,99.99
2023-02-13T03:59:37.277Z,99.99
2023-02-13T04:00:37.280Z,99.99
2023-02-13T04:01:37.296Z,99.99
2023-02-13T04:02:37.296Z,99.99
2023-02-13T04:03:37.244Z,99.99
2023-02-13T04:04:37.234Z,99.99
2023-02-13T04:05:37.244Z,99.99
2023-02-13T04:06:37.221Z,99.99
2023-02-13T04:07:37.204Z,99.99
2023-02-13T04:08:37.201Z,99.99
2023-02-13T04:09:37.189Z,99.99
2023-02-13T04:10:37.205Z,99.99
2023-02-13T04:11:37.172Z,99.99
2023-02-13T04:12:37.166Z,99.99
2023-02-13T04:13:37.153Z,99.99
2023-02-13T04:14:37.152Z,99.99
2023-02-13T04:15:37.154Z,99.99
2023-02-13T04:16:37.157Z,99.99
2023-02-13T04:17:37.119Z,99.99
2023-02-13T04:18:37.117Z,99.99
2023-02-13T04:19:37.104Z,99.99
2023-02-13T04:20:37.118Z,99.99
2023-02-13T04:21:37.086Z,99.99
2023-02-13T04:22:37.075Z,99.99
2023-02-13T04:23:37.222Z,99.99
2023-02-13T04:24:37.055Z,99.99
2023-02-13T04:25:37.051Z,99.99
2023-02-13T04:26:37.057Z,99.99
2023-02-13T04:27:37.036Z,99.99
2023-02-13T04:28:37.141Z,99.99
2023-02-13T04:29:37.019Z,99.99
2023-02-13T04:30:37.221Z,99.99
2023-02-13T04:31:37.108Z,99.99
2023-02-13T04:32:36.986Z,99.99
2023-02-13T04:33:36.980Z,99.99
2023-02-13T04:34:36.973Z,99.99
2023-02-13T04:35:37.052Z,99.99
2023-02-13T04:36:36.966Z,99.99
2023-02-13T04:37:36.956Z,99.99
2023-02-13T04:38:36.953Z,99.99
2023-02-13T04:39:37.932Z,99.99
2023-02-13T04:40:36.948Z,99.99
2023-02-13T04:41:36.929Z,99.99
2023-02-13T04:42:36.911Z,99.99
2023-02-13T04:43:36.897Z,99.99
2023-02-13T04:44:36.884Z,99.99
2023-02-13T04:45:36.894Z,99.99
2023-02-13T04:46:36.881Z,99.99
2023-02-13T04:47:36.864Z,99.99
2023-02-13T04:48:38.807Z,99.99
2023-02-13T04:49:37.861Z,99.99
2023-02-13T04:50:36.830Z,99.99
2023-02-13T04:51:37.841Z,99.99
2023-02-13T04:52:36.813Z,99.99
2023-02-13T04:53:36.803Z,99.99
2023-02-13T04:54:36.798Z,99.99
2023-02-13T04:55:36.790Z,99.99
2023-02-13T04:56:36.784Z,99.99
2023-02-13T04:57:36.771Z,99.99
2023-02-13T04:58:36.760Z,99.99
2023-02-13T04:59:36.750Z,99.99
2023-02-13T05:00:36.748Z,99.99
2023-02-13T05:01:36.787Z,99.99
2023-02-13T05:02:38.695Z,99.99
2023-02-13T05:03:37.085Z,99.99
2023-02-13T05:04:36.789Z,99.99
2023-02-13T05:05:36.703Z,99.99
2023-02-13T05:06:36.702Z,99.99
2023-02-13T05:07:36.682Z,99.99
2023-02-13T05:08:36.671Z,99.99
2023-02-13T05:09:36.675Z,99.99
2023-02-13T05:10:36.663Z,99.99
2023-02-13T05:11:36.672Z,99.99
2023-02-13T05:12:36.643Z,99.99
2023-02-13T05:13:36.636Z,99.99
2023-02-13T05:14:36.627Z,99.99
2023-02-13T05:15:37.055Z,99.99
2023-02-13T05:16:36.624Z,99.99
2023-02-13T05:17:36.605Z,99.99
2023-02-13T05:18:36.599Z,99.99
2023-02-13T05:19:36.586Z,99.99
2023-02-13T05:20:36.580Z,99.99
2023-02-13T05:21:36.574Z,99.99
2023-02-13T05:22:36.563Z,99.99
2023-02-13T05:23:36.550Z,99.99
2023-02-13T05:24:36.540Z,99.99
2023-02-13T05:25:36.531Z,99.99
2023-02-13T05:26:36.537Z,99.99
2023-02-13T05:27:36.522Z,99.99
2023-02-13T05:28:36.543Z,99.99
2023-02-13T05:29:36.506Z,99.99
2023-02-13T05:30:36.488Z,99.99
2023-02-13T05:31:36.659Z,99.99
2023-02-13T05:32:36.497Z,99.99
2023-02-13T05:33:36.463Z,99.99
2023-02-13T05:34:36.472Z,99.99
2023-02-13T05:35:36.478Z,99.99
2023-02-13T05:36:36.451Z,99.99
2023-02-13T05:37:36.432Z,99.99
2023-02-13T05:38:36.431Z,99.99
2023-02-13T05:39:36.414Z,99.99
2023-02-13T05:40:36.412Z,99.99
2023-02-13T05:41:36.409Z,99.99
2023-02-13T05:42:36.387Z,99.99
2023-02-13T05:43:36.378Z,99.99
2023-02-13T05:44:36.365Z,99.99
2023-02-13T05:45:36.359Z,99.99
2023-02-13T05:46:36.400Z,99.99
2023-02-13T05:47:36.350Z,99.99
2023-02-13T05:48:36.349Z,99.99
2023-02-13T05:49:36.339Z,99.99
2023-02-13T05:50:37.327Z,99.99
2023-02-13T05:51:36.321Z,99.99
2023-02-13T05:52:36.322Z,99.99
2023-02-13T05:53:36.292Z,99.99
2023-02-13T05:54:36.282Z,99.99
2023-02-13T05:55:36.293Z,99.99
2023-02-13T05:56:36.300Z,99.99
2023-02-13T05:57:36.266Z,99.99
2023-02-13T05:58:36.267Z,99.99
2023-02-13T05:59:36.238Z,99.99
2023-02-13T06:00:36.260Z,99.99
2023-02-13T06:01:36.260Z,99.99
2023-02-13T06:02:36.285Z,99.99
2023-02-13T06:03:36.268Z,99.99
2023-02-13T06:04:36.195Z,99.99
2023-02-13T06:05:36.195Z,99.99
2023-02-13T06:06:36.202Z,99.99
2023-02-13T06:07:36.173Z,99.99
2023-02-13T06:08:36.159Z,99.99
2023-02-13T06:09:36.155Z,99.99
2023-02-13T06:10:36.143Z,99.99
2023-02-13T06:11:36.156Z,99.99
2023-02-13T06:12:36.127Z,99.99
2023-02-13T06:13:36.113Z,99.99
2023-02-13T06:14:36.106Z,99.99
2023-02-13T06:15:36.100Z,99.99
2023-02-13T06:16:36.102Z,99.99
2023-02-13T06:17:36.079Z,99.99
2023-02-13T06:18:36.069Z,99.99
2023-02-13T06:19:36.057Z,99.99
2023-02-13T06:20:36.063Z,99.99
2023-02-13T06:21:36.064Z,99.99
2023-02-13T06:22:36.065Z,99.99
2023-02-13T06:23:36.032Z,99.99
2023-02-13T06:24:36.018Z,99.99
2023-02-13T06:25:36.011Z,99.99
2023-02-13T06:26:36.013Z,99.99
2023-02-13T06:27:35.991Z,99.99
2023-02-13T06:28:36.054Z,99.99
2023-02-13T06:29:35.975Z,99.99
2023-02-13T06:30:35.985Z,99.99
2023-02-13T06:31:36.022Z,99.99
2023-02-13T06:32:35.955Z,99.99
2023-02-13T06:33:35.954Z,99.99
2023-02-13T06:34:35.938Z,99.99
2023-02-13T06:35:35.930Z,99.99
2023-02-13T06:36:35.931Z,99.99
2023-02-13T06:37:35.911Z,99.99
2023-02-13T06:38:35.904Z,99.99
2023-02-13T06:39:36.110Z,99.99
2023-02-13T06:40:35.882Z,99.99
2023-02-13T06:41:35.885Z,99.99
2023-02-13T06:42:35.865Z,99.99
2023-02-13T06:43:35.856Z,99.99
2023-02-13T06:44:35.847Z,99.99
2023-02-13T06:45:35.835Z,99.99
2023-02-13T06:46:35.894Z,99.99
2023-02-13T06:47:35.821Z,99.99
2023-02-13T06:48:35.801Z,99.99
2023-02-13T06:49:36.800Z,99.99
2023-02-13T06:50:35.788Z,99.99
2023-02-13T06:51:35.791Z,99.99
2023-02-13T06:52:35.775Z,99.99
2023-02-13T06:53:35.777Z,99.99
2023-02-13T06:54:46.743Z,99.99
2023-02-13T06:55:37.748Z,99.99
2023-02-13T06:56:35.747Z,99.99
2023-02-13T06:57:35.723Z,99.99
2023-02-13T06:58:35.722Z,99.99
2023-02-13T06:59:35.714Z,99.99
2023-02-13T07:00:35.722Z,99.99
2023-02-13T07:01:35.703Z,99.99
2023-02-13T07:02:35.746Z,99.99
2023-02-13T07:03:35.678Z,99.99
2023-02-13T07:04:35.704Z,99.99
2023-02-13T07:05:35.658Z,99.99
2023-02-13T07:06:35.655Z,99.99
2023-02-13T07:07:35.656Z,99.99
2023-02-13T07:08:35.633Z,99.99
2023-02-13T07:09:35.622Z,99.99
2023-02-13T07:10:35.616Z,99.99
2023-02-13T07:11:35.608Z,99.99
2023-02-13T07:12:35.608Z,99.99
2023-02-13T07:13:35.589Z,99.99
2023-02-13T07:14:35.583Z,99.99
2023-02-13T07:15:35.582Z,99.99
2023-02-13T07:16:35.639Z,99.99
2023-02-13T07:17:35.962Z,99.99
2023-02-13T07:18:37.559Z,99.99
2023-02-13T07:19:35.534Z,99.99
2023-02-13T07:20:35.534Z,99.99
2023-02-13T07:21:35.521Z,99.99
2023-02-13T07:22:35.521Z,99.99
2023-02-13T07:23:35.503Z,99.99
2023-02-13T07:24:35.501Z,99.99
2023-02-13T07:25:35.487Z,99.99
2023-02-13T07:26:35.477Z,99.99
2023-02-13T07:27:35.493Z,99.99
2023-02-13T07:28:35.539Z,99.99
2023-02-13T07:29:35.453Z,99.99
2023-02-13T07:30:35.475Z,99.99
2023-02-13T07:31:35.548Z,99.99
2023-02-13T07:32:35.444Z,99.99
2023-02-13T07:33:35.426Z,99.99
2023-02-13T07:34:35.411Z,99.99
2023-02-13T07:35:35.401Z,99.99
2023-02-13T07:36:35.404Z,99.99
2023-02-13T07:37:35.407Z,99.99
2023-02-13T07:38:35.385Z,99.99
2023-02-13T07:39:35.370Z,99.99
2023-02-13T07:40:35.365Z,99.99
2023-02-13T07:41:35.353Z,99.99
2023-02-13T07:42:35.362Z,99.99
2023-02-13T07:43:35.342Z,99.99
2023-02-13T07:44:35.335Z,99.99
2023-02-13T07:45:35.319Z,99.99
2023-02-13T07:46:35.329Z,99.99
2023-02-13T07:47:35.319Z,99.99
2023-02-13T07:48:35.292Z,99.99
2023-02-13T07:49:35.308Z,99.99
2023-02-13T07:50:35.289Z,99.99
2023-02-13T07:51:35.269Z,99.99
2023-02-13T07:52:35.271Z,99.99
2023-02-13T07:53:35.250Z,99.99
2023-02-13T07:54:35.239Z,99.99
2023-02-13T07:55:35.245Z,99.99
2023-02-13T07:56:35.227Z,99.99
2023-02-13T07:57:35.230Z,99.99
2023-02-13T07:58:35.216Z,99.99
2023-02-13T07:59:35.221Z,99.99
2023-02-13T08:00:35.235Z,99.99
2023-02-13T08:01:35.328Z,99.99
2023-02-13T08:02:35.331Z,99.99
2023-02-13T08:03:35.209Z,99.99
2023-02-13T08:04:35.157Z,99.99
2023-02-13T08:05:35.149Z,99.99
2023-02-13T08:06:35.143Z,99.99
2023-02-13T08:07:35.158Z,99.99
2023-02-13T08:08:35.132Z,99.99
2023-02-13T08:09:35.114Z,99.99
2023-02-13T08:10:35.104Z,99.99
2023-02-13T08:11:35.097Z,99.99
2023-02-13T08:12:35.101Z,99.99
2023-02-13T08:13:35.086Z,99.99
2023-02-13T08:14:35.091Z,99.99
2023-02-13T08:15:35.057Z,99.99
2023-02-13T08:16:35.077Z,99.99
2023-02-13T08:17:35.050Z,99.99
2023-02-13T08:18:35.042Z,99.99
2023-02-13T08:19:35.021Z,99.99
2023-02-13T08:20:35.022Z,99.99
2023-02-13T08:21:35.014Z,99.99
2023-02-13T08:22:35.021Z,99.99
2023-02-13T08:23:35.126Z,99.99
2023-02-13T08:24:34.973Z,99.99
2023-02-13T08:25:34.982Z,99.99
2023-02-13T08:26:34.961Z,99.99
2023-02-13T08:27:34.953Z,99.99
2023-02-13T08:28:35.994Z,99.99
2023-02-13T08:29:34.940Z,99.99
2023-02-13T08:30:34.929Z,99.96
2023-02-13T08:31:35.102Z,99.99
2023-02-13T08:32:48.368Z,99.99
2023-02-13T08:33:36.908Z,99.99
2023-02-13T08:34:34.902Z,99.14
2023-02-13T08:35:34.893Z,99.86
2023-02-13T08:36:34.868Z,99.65
2023-02-13T08:37:34.873Z,99.82
2023-02-13T08:38:34.864Z,99.61
2023-02-13T08:39:34.843Z,99.92
2023-02-13T08:40:34.840Z,99.82
2023-02-13T08:41:34.838Z,99.61
2023-02-13T08:42:34.857Z,99.15
2023-02-13T08:43:34.809Z,99.40
2023-02-13T08:44:34.803Z,99.05
2023-02-13T08:45:34.830Z,99.05
2023-02-13T08:46:34.826Z,99.15
2023-02-13T08:47:34.781Z,98.94
2023-02-13T08:48:34.766Z,99.31
2023-02-13T08:49:34.754Z,99.46
2023-02-13T08:50:37.128Z,98.58
2023-02-13T08:51:35.742Z,99.10
2023-02-13T08:52:34.746Z,97.76
2023-02-13T08:53:34.721Z,98.44
2023-02-13T08:54:34.716Z,98.33
2023-02-13T08:55:34.707Z,97.72
2023-02-13T08:56:34.723Z,97.61
2023-02-13T08:57:34.705Z,96.27
2023-02-13T08:58:34.685Z,96.52
2023-02-13T08:59:34.672Z,95.96
2023-02-13T09:00:34.664Z,96.37
2023-02-13T09:01:34.729Z,96.17
2023-02-13T09:02:34.695Z,95.55
2023-02-13T09:03:34.629Z,96.06
2023-02-13T09:04:34.648Z,95.61
2023-02-13T09:05:34.620Z,96.06
2023-02-13T09:06:34.633Z,95.50
2023-02-13T09:07:34.607Z,95.20
2023-02-13T09:08:34.588Z,95.46
2023-02-13T09:09:34.586Z,94.78
2023-02-13T09:10:34.577Z,94.64
2023-02-13T09:11:34.565Z,94.74
2023-02-13T09:12:34.577Z,94.84
2023-02-13T09:13:34.543Z,94.53
2023-02-13T09:14:34.538Z,94.43
2023-02-13T09:15:34.527Z,94.12
2023-02-13T09:16:34.578Z,94.23
2023-02-13T09:17:34.521Z,93.30
2023-02-13T09:18:34.502Z,93.09
2023-02-13T09:19:34.497Z,94.02
2023-02-13T09:20:36.000Z,93.98
2023-02-13T09:21:35.491Z,93.98
2023-02-13T09:22:34.482Z,93.25
2023-02-13T09:23:34.464Z,91.50
2023-02-13T09:24:34.460Z,90.78
2023-02-13T09:25:34.454Z,90.47
2023-02-13T09:26:34.433Z,91.30
2023-02-13T09:27:34.435Z,91.50
2023-02-13T09:28:34.512Z,91.75
2023-02-13T09:29:34.416Z,92.22
2023-02-13T09:30:34.436Z,91.34
2023-02-13T09:31:34.490Z,92.27
2023-02-13T09:32:34.390Z,92.06
2023-02-13T09:33:34.390Z,92.02
2023-02-13T09:34:34.374Z,92.27
2023-02-13T09:35:34.347Z,91.91
2023-02-13T09:36:34.341Z,91.97
2023-02-13T09:37:34.350Z,92.59
2023-02-13T09:38:34.324Z,92.59
2023-02-13T09:39:34.310Z,91.19
2023-02-13T09:40:34.314Z,92.94
2023-02-13T09:41:34.291Z,92.78
2023-02-13T09:42:34.307Z,93.15
2023-02-13T09:43:34.288Z,93.25
2023-02-13T09:44:34.416Z,92.08
2023-02-13T09:45:34.266Z,91.40
2023-02-13T09:46:34.310Z,91.77
2023-02-13T09:47:34.244Z,92.14
2023-02-13T09:48:34.251Z,91.62
2023-02-13T09:49:34.215Z,90.86
2023-02-13T09:50:34.214Z,91.17
2023-02-13T09:51:34.198Z,90.96
2023-02-13T09:52:34.190Z,90.45
2023-02-13T09:53:34.195Z,89.58
2023-02-13T09:54:34.172Z,89.34
2023-02-13T09:55:34.157Z,88.62
2023-02-13T09:56:34.147Z,88.27
2023-02-13T09:57:34.141Z,87.49
2023-02-13T09:58:34.142Z,87.24
2023-02-13T09:59:34.201Z,86.77
2023-02-13T10:00:34.105Z,86.72
2023-02-13T10:01:34.136Z,86.48
2023-02-13T10:02:34.098Z,85.72
2023-02-13T10:03:34.088Z,84.96
2023-02-13T10:04:34.116Z,84.20
2023-02-13T10:05:34.074Z,82.87
2023-02-13T10:06:34.051Z,82.01
2023-02-13T10:07:34.075Z,80.72
2023-02-13T10:08:34.064Z,81.50
2023-02-13T10:09:34.015Z,80.78
2023-02-13T10:10:34.005Z,82.22
2023-02-13T10:11:33.996Z,83.04
2023-02-13T10:12:33.987Z,82.05
2023-02-13T10:13:34.021Z,83.18
2023-02-13T10:14:33.966Z,82.43
2023-02-13T10:15:33.969Z,83.28
2023-02-13T10:16:33.947Z,82.91
2023-02-13T10:17:33.954Z,83.12
2023-02-13T10:18:33.938Z,82.50
2023-02-13T10:19:33.915Z,81.99
2023-02-13T10:20:33.904Z,82.36
2023-02-13T10:21:33.894Z,81.13
2023-02-13T10:22:33.892Z,81.20
2023-02-13T10:23:33.898Z,81.09
2023-02-13T10:24:33.870Z,81.23
2023-02-13T10:25:33.847Z,81.74
2023-02-13T10:26:33.845Z,81.43
2023-02-13T10:27:33.840Z,81.34
2023-02-13T10:28:33.868Z,81.37
2023-02-13T10:29:33.823Z,81.43
2023-02-13T10:30:33.799Z,81.13
2023-02-13T10:31:35.642Z,81.20
2023-02-13T10:32:34.780Z,80.99
2023-02-13T10:33:33.781Z,80.54
2023-02-13T10:34:33.759Z,80.60
2023-02-13T10:35:34.139Z,79.11
2023-02-13T10:36:33.735Z,79.27
2023-02-13T10:37:33.755Z,78.66
2023-02-13T10:38:33.730Z,79.00
2023-02-13T10:39:33.705Z,78.11
2023-02-13T10:40:33.692Z,77.84
2023-02-13T10:41:33.687Z,78.35
2023-02-13T10:42:36.207Z,77.53
2023-02-13T10:43:33.676Z,78.45
2023-02-13T10:44:33.652Z,78.86
2023-02-13T10:45:33.646Z,78.49
2023-02-13T10:46:33.653Z,79.55
2023-02-13T10:47:33.620Z,80.17
2023-02-13T10:48:33.635Z,80.82
2023-02-13T10:49:33.605Z,81.43
2023-02-13T10:50:33.598Z,82.09
2023-02-13T10:51:33.609Z,82.68
2023-02-13T10:52:33.600Z,83.91
2023-02-13T10:53:33.593Z,84.32
2023-02-13T10:54:33.558Z,84.12
2023-02-13T10:55:33.542Z,84.12
2023-02-13T10:56:33.865Z,84.42
2023-02-13T10:57:33.527Z,84.28
2023-02-13T10:58:33.531Z,83.98
2023-02-13T10:59:33.516Z,84.53
2023-02-13T11:00:33.502Z,83.91
2023-02-13T11:01:33.518Z,82.99
2023-02-13T11:02:33.470Z,84.12
2023-02-13T11:03:33.471Z,84.12
2023-02-13T11:04:33.508Z,84.74
2023-02-13T11:05:33.440Z,84.94
2023-02-13T11:06:33.437Z,85.00
2023-02-13T11:07:33.440Z,84.80
2023-02-13T11:08:33.422Z,84.39
2023-02-13T11:09:33.870Z,84.28
2023-02-13T11:10:33.386Z,85.82
2023-02-13T11:11:33.375Z,85.72
2023-02-13T11:12:33.377Z,84.90
2023-02-13T11:13:33.373Z,84.69
2023-02-13T11:14:33.342Z,84.39
2023-02-13T11:15:33.339Z,83.94
2023-02-13T11:16:33.397Z,84.34
2023-02-13T11:17:33.314Z,82.70
2023-02-13T11:18:33.316Z,82.95
2023-02-13T11:19:33.388Z,84.80
2023-02-13T11:20:33.301Z,85.31
2023-02-13T11:21:33.273Z,83.67
2023-02-13T11:22:33.259Z,85.00
2023-02-13T11:23:33.270Z,85.55
2023-02-13T11:24:33.321Z,84.94
2023-02-13T11:25:33.245Z,84.63
2023-02-13T11:26:33.231Z,85.76
2023-02-13T11:27:33.216Z,85.55
2023-02-13T11:28:33.281Z,85.66
2023-02-13T11:29:33.213Z,84.94
2023-02-13T11:30:33.193Z,85.08
2023-02-13T11:31:33.278Z,86.52
2023-02-13T11:32:33.176Z,85.86
2023-02-13T11:33:33.182Z,84.94
2023-02-13T11:34:33.149Z,84.80
2023-02-13T11:35:33.138Z,84.69
2023-02-13T11:36:33.179Z,85.55
2023-02-13T11:37:33.117Z,85.00
2023-02-13T11:38:33.117Z,84.63
2023-02-13T11:39:33.101Z,84.08
2023-02-13T11:40:33.085Z,84.08
2023-02-13T11:41:33.069Z,83.98
2023-02-13T11:42:33.082Z,84.90
2023-02-13T11:43:33.071Z,85.72
2023-02-13T11:44:33.037Z,85.11
2023-02-13T11:45:34.032Z,85.46
2023-02-13T11:46:33.052Z,85.66
2023-02-13T11:47:33.016Z,84.63
2023-02-13T11:48:33.038Z,85.76
2023-02-13T11:49:33.003Z,85.46
2023-02-13T11:50:33.072Z,85.62
2023-02-13T11:51:33.064Z,85.76
2023-02-13T11:52:32.968Z,85.41
2023-02-13T11:53:32.970Z,87.05
2023-02-13T11:54:32.958Z,87.16
2023-02-13T11:55:32.951Z,86.19
2023-02-13T11:56:32.935Z,85.58
2023-02-13T11:57:32.925Z,84.25
2023-02-13T11:58:32.937Z,84.14
2023-02-13T11:59:32.898Z,85.06
2023-02-13T12:00:32.893Z,85.44
2023-02-13T12:01:32.882Z,84.72
2023-02-13T12:02:32.898Z,83.90
2023-02-13T12:03:33.078Z,83.59
2023-02-13T12:04:32.854Z,84.31
2023-02-13T12:05:32.852Z,83.28
2023-02-13T12:06:34.755Z,84.00
2023-02-13T12:07:32.826Z,82.40
2023-02-13T12:08:32.826Z,83.26
2023-02-13T12:09:32.815Z,84.53
2023-02-13T12:10:32.791Z,84.84
2023-02-13T12:11:32.825Z,85.21
2023-02-13T12:12:32.832Z,84.28
2023-02-13T12:13:32.776Z,83.67
2023-02-13T12:14:32.793Z,85.25
2023-02-13T12:15:32.747Z,85.31
2023-02-13T12:16:32.785Z,84.18
2023-02-13T12:17:32.864Z,84.59
2023-02-13T12:18:34.141Z,84.76
2023-02-13T12:19:32.704Z,85.27
2023-02-13T12:20:32.713Z,84.86
2023-02-13T12:21:32.686Z,83.32
2023-02-13T12:22:34.703Z,83.46
2023-02-13T12:23:33.785Z,85.00
2023-02-13T12:24:32.653Z,85.06
2023-02-13T12:25:32.649Z,84.76
2023-02-13T12:26:32.637Z,84.92
2023-02-13T12:27:32.625Z,83.49
2023-02-13T12:28:32.698Z,83.49
2023-02-13T12:29:33.636Z,82.50
2023-02-13T12:30:32.598Z,83.56
2023-02-13T12:31:32.602Z,84.69
2023-02-13T12:32:32.576Z,84.04
2023-02-13T12:33:32.569Z,84.76
2023-02-13T12:34:33.550Z,85.44
2023-02-13T12:35:32.540Z,84.52
2023-02-13T12:36:32.554Z,83.90
2023-02-13T12:37:32.525Z,84.47
2023-02-13T12:38:32.533Z,83.76
2023-02-13T12:39:32.504Z,82.83
2023-02-13T12:40:32.497Z,81.34
2023-02-13T12:41:32.490Z,82.36
2023-02-13T12:42:32.477Z,84.41
2023-02-13T12:43:32.482Z,84.78
2023-02-13T12:44:32.453Z,84.06
2023-02-13T12:45:32.456Z,82.73
2023-02-13T12:46:32.439Z,83.14
2023-02-13T12:47:32.428Z,81.81
2023-02-13T12:48:32.417Z,81.40
2023-02-13T12:49:32.416Z,81.09
2023-02-13T12:50:32.411Z,82.53
2023-02-13T12:51:32.382Z,80.78
2023-02-13T12:52:32.367Z,81.02